Terminal Aerodrome Forecast
Issued by NWS Lubbock, TX

Home | Current Version | Previous Version | Text Only | Print | Product List | Glossary On
Versions: 1 2 3 4 5 6 7 8 9 10 11 12 13 14 15 16 17 18 19 20 21 22 23 24 25 26 27 28 29 30 31 32 33 34 35 36 37 38 39 40 41 42 43
000
FTUS44 KLUB 201100
TAFLBB
TAF
KLBB 201120Z 2012/2112 14006KT 6SM -RA BR BKN008 OVC025
     FM201600 12009KT P6SM VCSH BKN020 OVC070
     FM210300 08006KT P6SM BKN035 OVC100=

USA.gov is the U.S. government's official web portal to all federal, state and local government web resources and services.